sensor_id;sensor_type;location;lat;lon;timestamp;P1;durP1;ratioP1;P2;durP2;ratioP2
75820;SDS011;64454;51.984;9.838;2023-07-02T00:02:23;3.33;;;2.80;;
75820;SDS011;64454;51.984;9.838;2023-07-02T00:04:50;4.00;;;2.80;;
75820;SDS011;64454;51.984;9.838;2023-07-02T00:07:17;3.90;;;3.10;;
75820;SDS011;64454;51.984;9.838;2023-07-02T00:09:43;3.20;;;2.90;;
75820;SDS011;64454;51.984;9.838;2023-07-02T00:12:12;3.58;;;3.15;;
75820;SDS011;64454;51.984;9.838;2023-07-02T00:14:39;6.38;;;3.63;;
75820;SDS011;64454;51.984;9.838;2023-07-02T00:17:06;3.97;;;3.58;;
75820;SDS011;64454;51.984;9.838;2023-07-02T00:19:33;4.80;;;3.50;;
75820;SDS011;64454;51.984;9.838;2023-07-02T00:21:59;5.25;;;3.30;;
75820;SDS011;64454;51.984;9.838;2023-07-02T00:24:27;5.28;;;3.47;;
75820;SDS011;64454;51.984;9.838;2023-07-02T00:26:54;4.22;;;2.97;;
75820;SDS011;64454;51.984;9.838;2023-07-02T00:29:22;3.65;;;3.17;;
75820;SDS011;64454;51.984;9.838;2023-07-02T00:31:49;3.05;;;2.70;;
75820;SDS011;64454;51.984;9.838;2023-07-02T00:34:17;4.60;;;3.00;;
75820;SDS011;64454;51.984;9.838;2023-07-02T00:36:45;4.38;;;2.97;;
75820;SDS011;64454;51.984;9.838;2023-07-02T00:39:13;4.00;;;3.03;;
75820;SDS011;64454;51.984;9.838;2023-07-02T00:41:42;3.40;;;2.90;;
75820;SDS011;64454;51.984;9.838;2023-07-02T00:44:11;6.35;;;3.00;;
75820;SDS011;64454;51.984;9.838;2023-07-02T00:46:39;3.42;;;2.92;;
75820;SDS011;64454;51.984;9.838;2023-07-02T00:49:06;3.42;;;2.70;;
75820;SDS011;64454;51.984;9.838;2023-07-02T00:51:36;8.07;;;3.50;;
75820;SDS011;64454;51.984;9.838;2023-07-02T00:54:03;2.40;;;2.17;;
75820;SDS011;64454;51.984;9.838;2023-07-02T00:56:30;3.20;;;2.73;;
75820;SDS011;64454;51.984;9.838;2023-07-02T00:58:57;2.90;;;2.35;;
75820;SDS011;64454;51.984;9.838;2023-07-02T01:01:26;3.30;;;2.30;;
75820;SDS011;64454;51.984;9.838;2023-07-02T01:03:57;2.88;;;1.90;;
75820;SDS011;64454;51.984;9.838;2023-07-02T01:06:26;4.50;;;2.30;;
75820;SDS011;64454;51.984;9.838;2023-07-02T01:08:55;3.83;;;2.78;;
75820;SDS011;64454;51.984;9.838;2023-07-02T01:11:25;3.85;;;2.70;;
75820;SDS011;64454;51.984;9.838;2023-07-02T01:13:57;5.00;;;2.80;;
75820;SDS011;64454;51.984;9.838;2023-07-02T01:16:28;3.60;;;2.50;;
75820;SDS011;64454;51.984;9.838;2023-07-02T01:18:59;4.72;;;2.40;;
75820;SDS011;64454;51.984;9.838;2023-07-02T01:21:31;4.10;;;2.60;;
75820;SDS011;64454;51.984;9.838;2023-07-02T01:23:59;2.88;;;2.58;;
75820;SDS011;64454;51.984;9.838;2023-07-02T01:26:27;4.20;;;2.50;;
75820;SDS011;64454;51.984;9.838;2023-07-02T01:28:58;3.63;;;2.70;;
75820;SDS011;64454;51.984;9.838;2023-07-02T01:31:25;3.97;;;2.97;;
75820;SDS011;64454;51.984;9.838;2023-07-02T01:33:52;3.50;;;2.55;;
75820;SDS011;64454;51.984;9.838;2023-07-02T01:36:19;3.70;;;2.33;;
75820;SDS011;64454;51.984;9.838;2023-07-02T01:38:47;2.65;;;2.45;;
75820;SDS011;64454;51.984;9.838;2023-07-02T01:41:14;3.08;;;2.78;;
75820;SDS011;64454;51.984;9.838;2023-07-02T01:43:40;4.25;;;2.90;;
75820;SDS011;64454;51.984;9.838;2023-07-02T01:46:07;3.33;;;2.80;;
75820;SDS011;64454;51.984;9.838;2023-07-02T01:48:34;4.90;;;3.20;;
75820;SDS011;64454;51.984;9.838;2023-07-02T01:51:01;4.30;;;3.88;;
75820;SDS011;64454;51.984;9.838;2023-07-02T01:53:27;5.38;;;3.35;;
75820;SDS011;64454;51.984;9.838;2023-07-02T01:55:55;4.43;;;3.50;;
75820;SDS011;64454;51.984;9.838;2023-07-02T01:58:22;5.38;;;3.15;;
75820;SDS011;64454;51.984;9.838;2023-07-02T02:00:49;3.92;;;3.40;;
75820;SDS011;64454;51.984;9.838;2023-07-02T02:03:16;3.78;;;3.47;;
75820;SDS011;64454;51.984;9.838;2023-07-02T02:05:43;3.78;;;3.38;;
75820;SDS011;64454;51.984;9.838;2023-07-02T02:08:10;6.97;;;3.75;;
75820;SDS011;64454;51.984;9.838;2023-07-02T02:10:37;4.40;;;3.40;;
75820;SDS011;64454;51.984;9.838;2023-07-02T02:13:05;4.80;;;3.60;;
75820;SDS011;64454;51.984;9.838;2023-07-02T02:15:32;3.90;;;3.50;;
75820;SDS011;64454;51.984;9.838;2023-07-02T02:17:59;4.13;;;3.10;;
75820;SDS011;64454;51.984;9.838;2023-07-02T02:20:26;3.90;;;3.22;;
75820;SDS011;64454;51.984;9.838;2023-07-02T02:22:53;5.67;;;3.50;;
75820;SDS011;64454;51.984;9.838;2023-07-02T02:25:19;4.13;;;3.72;;
75820;SDS011;64454;51.984;9.838;2023-07-02T02:27:46;5.43;;;3.70;;
75820;SDS011;64454;51.984;9.838;2023-07-02T02:30:14;4.95;;;3.30;;
75820;SDS011;64454;51.984;9.838;2023-07-02T02:32:41;4.28;;;3.88;;
75820;SDS011;64454;51.984;9.838;2023-07-02T02:35:08;4.40;;;4.00;;
75820;SDS011;64454;51.984;9.838;2023-07-02T02:37:36;4.45;;;4.05;;
75820;SDS011;64454;51.984;9.838;2023-07-02T02:40:05;4.70;;;4.30;;
75820;SDS011;64454;51.984;9.838;2023-07-02T02:42:34;4.60;;;4.10;;
75820;SDS011;64454;51.984;9.838;2023-07-02T02:45:01;6.72;;;4.53;;
75820;SDS011;64454;51.984;9.838;2023-07-02T02:47:29;4.70;;;4.13;;
75820;SDS011;64454;51.984;9.838;2023-07-02T02:49:56;5.10;;;4.60;;
75820;SDS011;64454;51.984;9.838;2023-07-02T02:52:22;5.32;;;4.82;;
75820;SDS011;64454;51.984;9.838;2023-07-02T02:54:50;5.23;;;4.73;;
75820;SDS011;64454;51.984;9.838;2023-07-02T02:57:17;5.60;;;5.10;;
75820;SDS011;64454;51.984;9.838;2023-07-02T02:59:44;6.60;;;4.88;;
75820;SDS011;64454;51.984;9.838;2023-07-02T03:02:13;4.95;;;4.45;;
75820;SDS011;64454;51.984;9.838;2023-07-02T03:04:42;6.25;;;5.15;;
75820;SDS011;64454;51.984;9.838;2023-07-02T03:07:09;6.53;;;5.65;;
75820;SDS011;64454;51.984;9.838;2023-07-02T03:09:36;7.18;;;5.50;;
75820;SDS011;64454;51.984;9.838;2023-07-02T03:12:03;6.55;;;5.95;;
75820;SDS011;64454;51.984;9.838;2023-07-02T03:14:30;6.20;;;5.70;;
75820;SDS011;64454;51.984;9.838;2023-07-02T03:16:57;6.95;;;6.25;;
75820;SDS011;64454;51.984;9.838;2023-07-02T03:19:23;6.10;;;5.50;;
75820;SDS011;64454;51.984;9.838;2023-07-02T03:21:52;7.05;;;6.35;;
75820;SDS011;64454;51.984;9.838;2023-07-02T03:24:19;7.10;;;6.40;;
75820;SDS011;64454;51.984;9.838;2023-07-02T03:26:47;7.13;;;6.43;;
75820;SDS011;64454;51.984;9.838;2023-07-02T03:29:14;9.52;;;6.90;;
75820;SDS011;64454;51.984;9.838;2023-07-02T03:31:44;7.10;;;5.90;;
75820;SDS011;64454;51.984;9.838;2023-07-02T03:34:11;9.55;;;6.93;;
75820;SDS011;64454;51.984;9.838;2023-07-02T03:36:39;9.00;;;6.88;;
75820;SDS011;64454;51.984;9.838;2023-07-02T03:39:07;10.35;;;6.65;;
75820;SDS011;64454;51.984;9.838;2023-07-02T03:41:34;8.65;;;7.20;;
75820;SDS011;64454;51.984;9.838;2023-07-02T03:44:01;8.20;;;7.40;;
75820;SDS011;64454;51.984;9.838;2023-07-02T03:46:28;8.25;;;7.43;;
75820;SDS011;64454;51.984;9.838;2023-07-02T03:48:56;8.85;;;7.95;;
75820;SDS011;64454;51.984;9.838;2023-07-02T03:51:23;9.52;;;7.82;;
75820;SDS011;64454;51.984;9.838;2023-07-02T03:53:49;9.80;;;8.15;;
75820;SDS011;64454;51.984;9.838;2023-07-02T03:56:17;9.30;;;8.30;;
75820;SDS011;64454;51.984;9.838;2023-07-02T03:58:44;8.35;;;7.55;;
75820;SDS011;64454;51.984;9.838;2023-07-02T04:01:11;11.10;;;8.68;;
75820;SDS011;64454;51.984;9.838;2023-07-02T04:03:40;11.95;;;9.60;;
75820;SDS011;64454;51.984;9.838;2023-07-02T04:06:13;10.52;;;9.52;;
75820;SDS011;64454;51.984;9.838;2023-07-02T04:08:40;10.20;;;9.10;;
75820;SDS011;64454;51.984;9.838;2023-07-02T04:11:06;10.90;;;9.80;;
75820;SDS011;64454;51.984;9.838;2023-07-02T04:13:35;10.70;;;9.60;;
75820;SDS011;64454;51.984;9.838;2023-07-02T04:16:02;10.88;;;9.77;;
75820;SDS011;64454;51.984;9.838;2023-07-02T04:18:29;11.80;;;9.60;;
75820;SDS011;64454;51.984;9.838;2023-07-02T04:20:55;11.68;;;10.48;;
75820;SDS011;64454;51.984;9.838;2023-07-02T04:23:23;10.95;;;9.85;;
75820;SDS011;64454;51.984;9.838;2023-07-02T04:25:50;13.07;;;10.25;;
75820;SDS011;64454;51.984;9.838;2023-07-02T04:28:17;12.30;;;10.63;;
75820;SDS011;64454;51.984;9.838;2023-07-02T04:30:45;11.00;;;9.90;;
75820;SDS011;64454;51.984;9.838;2023-07-02T04:33:14;12.13;;;9.67;;
75820;SDS011;64454;51.984;9.838;2023-07-02T04:35:42;10.47;;;9.27;;
75820;SDS011;64454;51.984;9.838;2023-07-02T04:38:09;11.37;;;10.17;;
75820;SDS011;64454;51.984;9.838;2023-07-02T04:40:37;10.87;;;9.50;;
75820;SDS011;64454;51.984;9.838;2023-07-02T04:43:04;11.38;;;9.63;;
75820;SDS011;64454;51.984;9.838;2023-07-02T04:45:31;11.52;;;9.50;;
75820;SDS011;64454;51.984;9.838;2023-07-02T04:48:02;10.95;;;9.40;;
75820;SDS011;64454;51.984;9.838;2023-07-02T04:50:30;10.97;;;9.47;;
75820;SDS011;64454;51.984;9.838;2023-07-02T04:52:56;11.40;;;9.40;;
75820;SDS011;64454;51.984;9.838;2023-07-02T04:55:23;10.70;;;9.55;;
75820;SDS011;64454;51.984;9.838;2023-07-02T04:57:50;11.13;;;9.93;;
75820;SDS011;64454;51.984;9.838;2023-07-02T05:00:17;12.88;;;10.57;;
75820;SDS011;64454;51.984;9.838;2023-07-02T05:02:44;9.93;;;8.70;;
75820;SDS011;64454;51.984;9.838;2023-07-02T05:05:12;13.05;;;10.20;;
75820;SDS011;64454;51.984;9.838;2023-07-02T05:07:40;10.60;;;9.50;;
75820;SDS011;64454;51.984;9.838;2023-07-02T05:10:07;15.00;;;9.68;;
75820;SDS011;64454;51.984;9.838;2023-07-02T05:12:34;12.80;;;9.98;;
75820;SDS011;64454;51.984;9.838;2023-07-02T05:15:01;11.95;;;9.80;;
75820;SDS011;64454;51.984;9.838;2023-07-02T05:17:28;12.35;;;10.15;;
75820;SDS011;64454;51.984;9.838;2023-07-02T05:19:57;13.57;;;10.60;;
75820;SDS011;64454;51.984;9.838;2023-07-02T05:22:25;13.20;;;10.70;;
75820;SDS011;64454;51.984;9.838;2023-07-02T05:24:52;13.98;;;10.25;;
75820;SDS011;64454;51.984;9.838;2023-07-02T05:27:19;14.35;;;10.20;;
75820;SDS011;64454;51.984;9.838;2023-07-02T05:29:46;14.18;;;11.15;;
75820;SDS011;64454;51.984;9.838;2023-07-02T05:32:12;12.60;;;10.70;;
75820;SDS011;64454;51.984;9.838;2023-07-02T05:34:39;18.50;;;11.18;;
75820;SDS011;64454;51.984;9.838;2023-07-02T05:37:06;11.38;;;7.20;;
75820;SDS011;64454;51.984;9.838;2023-07-02T05:39:34;14.57;;;7.27;;
75820;SDS011;64454;51.984;9.838;2023-07-02T05:42:01;12.50;;;6.60;;
75820;SDS011;64454;51.984;9.838;2023-07-02T05:44:28;15.55;;;6.85;;
75820;SDS011;64454;51.984;9.838;2023-07-02T05:46:55;14.00;;;6.80;;
75820;SDS011;64454;51.984;9.838;2023-07-02T05:49:22;14.57;;;7.72;;
75820;SDS011;64454;51.984;9.838;2023-07-02T05:51:48;11.00;;;6.00;;
75820;SDS011;64454;51.984;9.838;2023-07-02T05:54:16;11.35;;;6.20;;
75820;SDS011;64454;51.984;9.838;2023-07-02T05:56:47;9.48;;;6.93;;
75820;SDS011;64454;51.984;9.838;2023-07-02T05:59:14;10.75;;;7.32;;
75820;SDS011;64454;51.984;9.838;2023-07-02T06:01:44;11.43;;;6.20;;
75820;SDS011;64454;51.984;9.838;2023-07-02T06:04:11;11.88;;;7.28;;
75820;SDS011;64454;51.984;9.838;2023-07-02T06:06:39;9.95;;;6.30;;
75820;SDS011;64454;51.984;9.838;2023-07-02T06:09:05;12.03;;;6.83;;
75820;SDS011;64454;51.984;9.838;2023-07-02T06:11:32;13.20;;;6.83;;
75820;SDS011;64454;51.984;9.838;2023-07-02T06:14:01;11.85;;;7.30;;
75820;SDS011;64454;51.984;9.838;2023-07-02T06:16:27;12.57;;;7.25;;
75820;SDS011;64454;51.984;9.838;2023-07-02T06:18:54;9.85;;;7.25;;
75820;SDS011;64454;51.984;9.838;2023-07-02T06:21:21;12.20;;;7.70;;
75820;SDS011;64454;51.984;9.838;2023-07-02T06:23:49;13.18;;;7.97;;
75820;SDS011;64454;51.984;9.838;2023-07-02T06:26:16;10.93;;;7.20;;
75820;SDS011;64454;51.984;9.838;2023-07-02T06:28:43;11.65;;;7.70;;
75820;SDS011;64454;51.984;9.838;2023-07-02T06:31:11;11.98;;;7.68;;
75820;SDS011;64454;51.984;9.838;2023-07-02T06:33:38;10.90;;;7.03;;
75820;SDS011;64454;51.984;9.838;2023-07-02T06:36:07;9.82;;;6.80;;
75820;SDS011;64454;51.984;9.838;2023-07-02T06:38:34;13.57;;;7.25;;
75820;SDS011;64454;51.984;9.838;2023-07-02T06:41:00;10.07;;;7.60;;
75820;SDS011;64454;51.984;9.838;2023-07-02T06:43:27;13.52;;;7.55;;
75820;SDS011;64454;51.984;9.838;2023-07-02T06:45:54;13.20;;;7.85;;
75820;SDS011;64454;51.984;9.838;2023-07-02T06:48:22;13.77;;;7.40;;
75820;SDS011;64454;51.984;9.838;2023-07-02T06:50:49;12.38;;;6.72;;
75820;SDS011;64454;51.984;9.838;2023-07-02T06:53:16;11.80;;;7.60;;
75820;SDS011;64454;51.984;9.838;2023-07-02T06:55:43;11.23;;;7.63;;
75820;SDS011;64454;51.984;9.838;2023-07-02T06:58:09;15.68;;;8.00;;
75820;SDS011;64454;51.984;9.838;2023-07-02T07:00:36;12.90;;;7.82;;
75820;SDS011;64454;51.984;9.838;2023-07-02T07:03:03;10.60;;;6.97;;
75820;SDS011;64454;51.984;9.838;2023-07-02T07:05:32;9.43;;;7.10;;
75820;SDS011;64454;51.984;9.838;2023-07-02T07:07:59;15.27;;;6.72;;
75820;SDS011;64454;51.984;9.838;2023-07-02T07:10:26;11.23;;;6.80;;
75820;SDS011;64454;51.984;9.838;2023-07-02T07:12:53;10.48;;;5.97;;
75820;SDS011;64454;51.984;9.838;2023-07-02T07:15:20;9.55;;;5.93;;
75820;SDS011;64454;51.984;9.838;2023-07-02T07:17:47;17.10;;;5.70;;
75820;SDS011;64454;51.984;9.838;2023-07-02T07:20:14;11.20;;;5.70;;
75820;SDS011;64454;51.984;9.838;2023-07-02T07:22:42;13.45;;;6.20;;
75820;SDS011;64454;51.984;9.838;2023-07-02T07:25:09;11.60;;;5.80;;
75820;SDS011;64454;51.984;9.838;2023-07-02T07:27:35;10.20;;;6.00;;
75820;SDS011;64454;51.984;9.838;2023-07-02T07:30:03;11.40;;;6.15;;
75820;SDS011;64454;51.984;9.838;2023-07-02T07:32:31;8.57;;;5.93;;
75820;SDS011;64454;51.984;9.838;2023-07-02T07:34:58;10.93;;;5.90;;
75820;SDS011;64454;51.984;9.838;2023-07-02T07:37:25;13.48;;;5.93;;
75820;SDS011;64454;51.984;9.838;2023-07-02T07:39:53;11.45;;;5.72;;
75820;SDS011;64454;51.984;9.838;2023-07-02T07:42:20;11.07;;;6.30;;
75820;SDS011;64454;51.984;9.838;2023-07-02T07:44:46;11.95;;;5.90;;
75820;SDS011;64454;51.984;9.838;2023-07-02T07:47:13;13.45;;;5.90;;
75820;SDS011;64454;51.984;9.838;2023-07-02T07:49:40;10.50;;;4.90;;
75820;SDS011;64454;51.984;9.838;2023-07-02T07:52:07;10.50;;;5.28;;
75820;SDS011;64454;51.984;9.838;2023-07-02T07:54:34;9.98;;;5.30;;
75820;SDS011;64454;51.984;9.838;2023-07-02T07:57:02;13.57;;;6.47;;
75820;SDS011;64454;51.984;9.838;2023-07-02T07:59:30;10.35;;;5.80;;
75820;SDS011;64454;51.984;9.838;2023-07-02T08:01:57;11.15;;;5.50;;
75820;SDS011;64454;51.984;9.838;2023-07-02T08:04:24;11.80;;;5.90;;
75820;SDS011;64454;51.984;9.838;2023-07-02T08:06:50;13.90;;;5.63;;
75820;SDS011;64454;51.984;9.838;2023-07-02T08:09:18;13.15;;;5.88;;
75820;SDS011;64454;51.984;9.838;2023-07-02T08:11:47;9.63;;;5.72;;
75820;SDS011;64454;51.984;9.838;2023-07-02T08:14:16;12.90;;;6.32;;
75820;SDS011;64454;51.984;9.838;2023-07-02T08:16:45;10.95;;;5.80;;
75820;SDS011;64454;51.984;9.838;2023-07-02T08:19:13;9.80;;;5.30;;
75820;SDS011;64454;51.984;9.838;2023-07-02T08:21:41;13.02;;;5.63;;
75820;SDS011;64454;51.984;9.838;2023-07-02T08:24:08;12.02;;;6.03;;
75820;SDS011;64454;51.984;9.838;2023-07-02T08:26:35;11.95;;;6.13;;
75820;SDS011;64454;51.984;9.838;2023-07-02T08:29:03;11.53;;;6.20;;
75820;SDS011;64454;51.984;9.838;2023-07-02T08:31:31;11.50;;;6.20;;
75820;SDS011;64454;51.984;9.838;2023-07-02T08:34:00;13.00;;;6.20;;
75820;SDS011;64454;51.984;9.838;2023-07-02T08:36:26;9.45;;;5.72;;
75820;SDS011;64454;51.984;9.838;2023-07-02T08:38:53;10.48;;;5.80;;
75820;SDS011;64454;51.984;9.838;2023-07-02T08:41:20;12.55;;;5.60;;
75820;SDS011;64454;51.984;9.838;2023-07-02T08:43:48;13.10;;;6.10;;
75820;SDS011;64454;51.984;9.838;2023-07-02T08:46:16;11.93;;;5.90;;
75820;SDS011;64454;51.984;9.838;2023-07-02T08:48:46;14.07;;;6.45;;
75820;SDS011;64454;51.984;9.838;2023-07-02T08:51:13;12.93;;;5.80;;
75820;SDS011;64454;51.984;9.838;2023-07-02T08:53:40;13.18;;;6.03;;
75820;SDS011;64454;51.984;9.838;2023-07-02T08:56:07;12.75;;;6.70;;
75820;SDS011;64454;51.984;9.838;2023-07-02T08:58:33;8.38;;;5.03;;
75820;SDS011;64454;51.984;9.838;2023-07-02T09:01:03;14.13;;;6.70;;
75820;SDS011;64454;51.984;9.838;2023-07-02T09:03:32;12.45;;;6.05;;
75820;SDS011;64454;51.984;9.838;2023-07-02T09:06:00;9.45;;;6.00;;
75820;SDS011;64454;51.984;9.838;2023-07-02T09:08:27;10.20;;;5.70;;
75820;SDS011;64454;51.984;9.838;2023-07-02T09:11:04;10.35;;;6.10;;
75820;SDS011;64454;51.984;9.838;2023-07-02T09:13:45;13.50;;;6.07;;
75820;SDS011;64454;51.984;9.838;2023-07-02T09:16:20;10.60;;;5.97;;
75820;SDS011;64454;51.984;9.838;2023-07-02T09:19:01;16.30;;;6.70;;
75820;SDS011;64454;51.984;9.838;2023-07-02T09:21:41;12.20;;;6.40;;
75820;SDS011;64454;51.984;9.838;2023-07-02T09:24:13;11.70;;;5.80;;
75820;SDS011;64454;51.984;9.838;2023-07-02T09:26:44;13.57;;;6.60;;
75820;SDS011;64454;51.984;9.838;2023-07-02T09:29:18;13.80;;;7.18;;
75820;SDS011;64454;51.984;9.838;2023-07-02T09:31:48;11.77;;;6.03;;
75820;SDS011;64454;51.984;9.838;2023-07-02T09:34:16;11.00;;;6.10;;
75820;SDS011;64454;51.984;9.838;2023-07-02T09:36:46;12.90;;;5.90;;
75820;SDS011;64454;51.984;9.838;2023-07-02T09:39:14;13.57;;;6.53;;
75820;SDS011;64454;51.984;9.838;2023-07-02T09:41:51;12.70;;;6.67;;
75820;SDS011;64454;51.984;9.838;2023-07-02T09:44:20;14.43;;;6.70;;
75820;SDS011;64454;51.984;9.838;2023-07-02T09:46:49;8.55;;;5.82;;
75820;SDS011;64454;51.984;9.838;2023-07-02T09:49:24;12.63;;;6.30;;
75820;SDS011;64454;51.984;9.838;2023-07-02T09:51:54;13.48;;;6.38;;
75820;SDS011;64454;51.984;9.838;2023-07-02T09:54:21;11.73;;;6.57;;
75820;SDS011;64454;51.984;9.838;2023-07-02T09:56:48;13.83;;;6.13;;
75820;SDS011;64454;51.984;9.838;2023-07-02T09:59:16;10.47;;;6.60;;
75820;SDS011;64454;51.984;9.838;2023-07-02T10:01:45;12.67;;;6.63;;
75820;SDS011;64454;51.984;9.838;2023-07-02T10:04:13;12.80;;;6.43;;
75820;SDS011;64454;51.984;9.838;2023-07-02T10:06:46;14.98;;;7.20;;
75820;SDS011;64454;51.984;9.838;2023-07-02T10:09:18;11.60;;;6.70;;
75820;SDS011;64454;51.984;9.838;2023-07-02T10:11:47;11.77;;;6.55;;
75820;SDS011;64454;51.984;9.838;2023-07-02T10:14:15;13.13;;;6.20;;
75820;SDS011;64454;51.984;9.838;2023-07-02T10:16:51;11.10;;;6.00;;
75820;SDS011;64454;51.984;9.838;2023-07-02T10:19:20;12.30;;;6.40;;
75820;SDS011;64454;51.984;9.838;2023-07-02T10:22:00;13.63;;;6.07;;
75820;SDS011;64454;51.984;9.838;2023-07-02T10:24:29;11.18;;;6.05;;
75820;SDS011;64454;51.984;9.838;2023-07-02T10:26:57;11.10;;;5.80;;
75820;SDS011;64454;51.984;9.838;2023-07-02T10:29:27;10.85;;;5.85;;
75820;SDS011;64454;51.984;9.838;2023-07-02T10:31:56;14.13;;;7.78;;
75820;SDS011;64454;51.984;9.838;2023-07-02T10:34:31;10.90;;;6.97;;
75820;SDS011;64454;51.984;9.838;2023-07-02T10:37:00;15.50;;;7.40;;
75820;SDS011;64454;51.984;9.838;2023-07-02T10:39:27;14.63;;;6.97;;
75820;SDS011;64454;51.984;9.838;2023-07-02T10:42:03;14.68;;;8.10;;
75820;SDS011;64454;51.984;9.838;2023-07-02T10:44:31;13.48;;;7.47;;
75820;SDS011;64454;51.984;9.838;2023-07-02T10:46:58;13.70;;;7.13;;
75820;SDS011;64454;51.984;9.838;2023-07-02T10:49:29;18.00;;;8.60;;
75820;SDS011;64454;51.984;9.838;2023-07-02T10:51:58;12.55;;;6.78;;
75820;SDS011;64454;51.984;9.838;2023-07-02T10:54:25;10.05;;;6.15;;
75820;SDS011;64454;51.984;9.838;2023-07-02T10:56:57;12.35;;;6.90;;
75820;SDS011;64454;51.984;9.838;2023-07-02T10:59:24;12.13;;;5.88;;
75820;SDS011;64454;51.984;9.838;2023-07-02T11:01:51;11.75;;;7.03;;
75820;SDS011;64454;51.984;9.838;2023-07-02T11:04:18;13.90;;;6.32;;
75820;SDS011;64454;51.984;9.838;2023-07-02T11:06:47;11.25;;;5.10;;
75820;SDS011;64454;51.984;9.838;2023-07-02T11:09:18;8.63;;;5.63;;
75820;SDS011;64454;51.984;9.838;2023-07-02T11:11:53;10.73;;;5.25;;
75820;SDS011;64454;51.984;9.838;2023-07-02T11:14:30;9.80;;;5.60;;
75820;SDS011;64454;51.984;9.838;2023-07-02T11:16:58;13.70;;;5.87;;
75820;SDS011;64454;51.984;9.838;2023-07-02T11:19:30;9.52;;;5.18;;
75820;SDS011;64454;51.984;9.838;2023-07-02T11:21:57;13.82;;;5.88;;
75820;SDS011;64454;51.984;9.838;2023-07-02T11:24:29;10.07;;;5.10;;
75820;SDS011;64454;51.984;9.838;2023-07-02T11:26:59;11.00;;;5.80;;
75820;SDS011;64454;51.984;9.838;2023-07-02T11:29:29;9.55;;;5.25;;
75820;SDS011;64454;51.984;9.838;2023-07-02T11:32:04;10.73;;;5.60;;
75820;SDS011;64454;51.984;9.838;2023-07-02T11:34:32;10.07;;;5.80;;
75820;SDS011;64454;51.984;9.838;2023-07-02T11:36:58;11.02;;;5.20;;
75820;SDS011;64454;51.984;9.838;2023-07-02T11:39:25;9.73;;;5.22;;
75820;SDS011;64454;51.984;9.838;2023-07-02T11:41:52;10.02;;;5.55;;
75820;SDS011;64454;51.984;9.838;2023-07-02T11:44:20;10.90;;;6.00;;
75820;SDS011;64454;51.984;9.838;2023-07-02T11:46:48;8.30;;;5.38;;
75820;SDS011;64454;51.984;9.838;2023-07-02T11:49:17;10.17;;;4.87;;
75820;SDS011;64454;51.984;9.838;2023-07-02T11:51:45;10.05;;;4.93;;
75820;SDS011;64454;51.984;9.838;2023-07-02T11:54:14;10.80;;;5.30;;
75820;SDS011;64454;51.984;9.838;2023-07-02T11:56:43;10.25;;;4.90;;
75820;SDS011;64454;51.984;9.838;2023-07-02T11:59:10;11.10;;;5.50;;
75820;SDS011;64454;51.984;9.838;2023-07-02T12:01:37;8.23;;;4.60;;
75820;SDS011;64454;51.984;9.838;2023-07-02T12:04:06;12.75;;;5.35;;
75820;SDS011;64454;51.984;9.838;2023-07-02T12:06:33;7.87;;;4.43;;
75820;SDS011;64454;51.984;9.838;2023-07-02T12:09:00;10.38;;;5.45;;
75820;SDS011;64454;51.984;9.838;2023-07-02T12:11:26;8.00;;;5.10;;
75820;SDS011;64454;51.984;9.838;2023-07-02T12:13:53;11.13;;;5.30;;
75820;SDS011;64454;51.984;9.838;2023-07-02T12:16:20;9.30;;;4.82;;
75820;SDS011;64454;51.984;9.838;2023-07-02T12:18:47;12.70;;;4.90;;
75820;SDS011;64454;51.984;9.838;2023-07-02T12:21:15;8.82;;;5.10;;
75820;SDS011;64454;51.984;9.838;2023-07-02T12:23:43;6.47;;;4.40;;
75820;SDS011;64454;51.984;9.838;2023-07-02T12:26:10;8.60;;;5.00;;
75820;SDS011;64454;51.984;9.838;2023-07-02T12:28:36;9.57;;;4.75;;
75820;SDS011;64454;51.984;9.838;2023-07-02T12:31:03;10.13;;;4.75;;
75820;SDS011;64454;51.984;9.838;2023-07-02T12:33:30;9.02;;;4.40;;
75820;SDS011;64454;51.984;9.838;2023-07-02T12:35:57;8.85;;;5.00;;
75820;SDS011;64454;51.984;9.838;2023-07-02T12:38:26;9.45;;;4.65;;
75820;SDS011;64454;51.984;9.838;2023-07-02T12:40:52;12.10;;;5.30;;
75820;SDS011;64454;51.984;9.838;2023-07-02T12:43:19;9.05;;;5.28;;
75820;SDS011;64454;51.984;9.838;2023-07-02T12:45:46;9.85;;;5.03;;
75820;SDS011;64454;51.984;9.838;2023-07-02T12:48:13;9.88;;;4.85;;
75820;SDS011;64454;51.984;9.838;2023-07-02T12:50:40;10.70;;;5.30;;
75820;SDS011;64454;51.984;9.838;2023-07-02T12:53:07;9.60;;;5.05;;
75820;SDS011;64454;51.984;9.838;2023-07-02T12:55:35;9.15;;;4.80;;
75820;SDS011;64454;51.984;9.838;2023-07-02T12:58:02;9.57;;;4.85;;
75820;SDS011;64454;51.984;9.838;2023-07-02T13:00:29;8.80;;;4.60;;
75820;SDS011;64454;51.984;9.838;2023-07-02T13:02:56;10.67;;;5.00;;
75820;SDS011;64454;51.984;9.838;2023-07-02T13:05:22;10.20;;;5.00;;
75820;SDS011;64454;51.984;9.838;2023-07-02T13:07:49;11.88;;;5.15;;
75820;SDS011;64454;51.984;9.838;2023-07-02T13:10:16;11.15;;;5.10;;
75820;SDS011;64454;51.984;9.838;2023-07-02T13:12:44;9.10;;;5.30;;
75820;SDS011;64454;51.984;9.838;2023-07-02T13:15:11;10.63;;;5.50;;
75820;SDS011;64454;51.984;9.838;2023-07-02T13:17:38;9.40;;;5.40;;
75820;SDS011;64454;51.984;9.838;2023-07-02T13:20:06;7.20;;;4.50;;
75820;SDS011;64454;51.984;9.838;2023-07-02T13:22:34;9.70;;;5.00;;
75820;SDS011;64454;51.984;9.838;2023-07-02T13:25:02;7.95;;;4.60;;
75820;SDS011;64454;51.984;9.838;2023-07-02T13:27:30;10.77;;;5.20;;
75820;SDS011;64454;51.984;9.838;2023-07-02T13:29:58;8.98;;;4.60;;
75820;SDS011;64454;51.984;9.838;2023-07-02T13:32:25;9.00;;;5.20;;
75820;SDS011;64454;51.984;9.838;2023-07-02T13:34:52;8.57;;;4.93;;
75820;SDS011;64454;51.984;9.838;2023-07-02T13:37:19;7.97;;;4.80;;
75820;SDS011;64454;51.984;9.838;2023-07-02T13:39:45;12.52;;;5.13;;
75820;SDS011;64454;51.984;9.838;2023-07-02T13:42:13;11.10;;;4.90;;
75820;SDS011;64454;51.984;9.838;2023-07-02T13:44:41;12.65;;;5.30;;
75820;SDS011;64454;51.984;9.838;2023-07-02T13:47:09;8.57;;;5.47;;
75820;SDS011;64454;51.984;9.838;2023-07-02T13:49:37;12.75;;;5.40;;
75820;SDS011;64454;51.984;9.838;2023-07-02T13:52:04;11.25;;;5.28;;
75820;SDS011;64454;51.984;9.838;2023-07-02T13:54:31;10.10;;;4.80;;
75820;SDS011;64454;51.984;9.838;2023-07-02T13:56:58;9.80;;;5.13;;
75820;SDS011;64454;51.984;9.838;2023-07-02T13:59:26;12.13;;;5.60;;
75820;SDS011;64454;51.984;9.838;2023-07-02T14:01:53;12.27;;;5.70;;
75820;SDS011;64454;51.984;9.838;2023-07-02T14:04:20;9.73;;;5.25;;
75820;SDS011;64454;51.984;9.838;2023-07-02T14:06:47;9.18;;;5.68;;
75820;SDS011;64454;51.984;9.838;2023-07-02T14:09:14;8.77;;;5.43;;
75820;SDS011;64454;51.984;9.838;2023-07-02T14:11:44;10.60;;;4.97;;
75820;SDS011;64454;51.984;9.838;2023-07-02T14:14:11;10.63;;;5.90;;
75820;SDS011;64454;51.984;9.838;2023-07-02T14:16:41;11.10;;;5.40;;
75820;SDS011;64454;51.984;9.838;2023-07-02T14:19:08;10.38;;;5.80;;
75820;SDS011;64454;51.984;9.838;2023-07-02T14:21:35;9.05;;;5.40;;
75820;SDS011;64454;51.984;9.838;2023-07-02T14:24:02;8.70;;;4.93;;
75820;SDS011;64454;51.984;9.838;2023-07-02T14:26:29;8.23;;;4.80;;
75820;SDS011;64454;51.984;9.838;2023-07-02T14:28:56;10.52;;;5.10;;
75820;SDS011;64454;51.984;9.838;2023-07-02T14:31:24;9.57;;;5.20;;
75820;SDS011;64454;51.984;9.838;2023-07-02T14:33:52;8.65;;;4.60;;
75820;SDS011;64454;51.984;9.838;2023-07-02T14:36:19;11.37;;;5.40;;
75820;SDS011;64454;51.984;9.838;2023-07-02T14:38:46;11.02;;;5.85;;
75820;SDS011;64454;51.984;9.838;2023-07-02T14:41:12;11.20;;;5.47;;
75820;SDS011;64454;51.984;9.838;2023-07-02T14:43:39;8.00;;;4.80;;
75820;SDS011;64454;51.984;9.838;2023-07-02T14:46:06;7.90;;;4.43;;